Shtandart — UAEM — position and weather

sailwx.info

Track history (hours):
 
Tides and Currents Weather Stations Pressure Air Temp Water Temp Dewpoint Dewpoint Depression Visibility Wind Speed Wind Dir Waves Ship Positions

Shtandart

Re-creation of early 1700's Russian naval frigate.

Last reported at 2020-Sep-22 16:31 UTC. Time now 2020-Sep-26 09:14 UTC.
Position N 48°07' W 004°52'.

Length 26 m; draft 3 m.

Type: Sailing vessel. MMSI: 273452840.

Date/timePositionNaut miles runAvg speedWind from/ knotsBaromVisibWave heightAir tempDewpointWater temp
2020-Sep-22 16:31N 48°07' W 004°52'2 4.7
2020-Sep-22 16:01N 48°09' W 004°54'2 4.2
2020-Sep-22 15:30N 48°11' W 004°55'15 4.4
2020-Sep-22 12:00N 48°26' W 004°50'75 5.7
2020-Sep-21 22:51N 48°56' W 003°06'5 4.0
2020-Sep-21 21:30N 48°51' W 003°03'3 0.6
2020-Sep-21 17:21N 48°53' W 002°60'5 3.2
2020-Sep-21 15:51N 48°55' W 002°53'12 6.1
2020-Sep-21 13:54N 48°52' W 002°35'26 6.6
2020-Sep-21 10:01N 48°38' W 002°02'  
2020-Sep-18 04:59N 48°39' W 002°02'12 6.1
2020-Sep-18 02:58N 48°45' W 002°18'6 4.2
2020-Sep-18 01:25N 48°51' W 002°23'2 3.2
2020-Sep-18 00:46N 48°53' W 002°23'21 4.0
2020-Sep-17 19:30N 49°14' W 002°16'10 3.9
2020-Sep-17 17:01N 49°23' W 002°15'9 5.9
2020-Sep-17 15:31N 49°32' W 002°12'9 9.2
2020-Sep-17 14:30N 49°40' W 002°06'3012.0
2020-Sep-17 12:01N 49°59' W 001°30'28 6.9
2020-Sep-17 07:52N 50°22' W 001°03'2 6.2
2020-Sep-17 07:28N 50°24' W 001°02'3 6.1
2020-Sep-17 06:59N 50°27' W 001°00'2 4.7
2020-Sep-17 06:30N 50°28' W 000°57'22 7.0
2020-Sep-17 03:21N 50°35' W 000°25'4 9.2
2020-Sep-17 02:53N 50°36' W 000°18'74 8.1
2020-Sep-16 17:46N 51°08' E 001°28'7 9.5
2020-Sep-16 17:00N 51°13' E 001°36'4 7.3
2020-Sep-16 16:30N 51°16' E 001°40'19 4.2
2020-Sep-16 12:00N 51°31' E 001°57'29 5.8
2020-Sep-16 07:00N 51°50' E 002°33'13 6.3
2020-Sep-16 05:01N 51°56' E 002°51'4 6.5
2020-Sep-16 04:23N 51°58' E 002°57'2 5.2
2020-Sep-16 04:00N 51°58' E 003°00'4 3.6
2020-Sep-16 03:01N 51°58' E 003°06'6 2.0
2020-Sep-16 00:00N 51°54' E 003°14'0 0.6
2020-Sep-15 23:22N 51°54' E 003°14'1 0.8
2020-Sep-15 22:21N 51°54' E 003°13'2 1.1
2020-Sep-15 20:29N 51°56' E 003°13'5 0.7
2020-Sep-15 13:26N 51°52' E 003°15'5 1.4
2020-Sep-15 09:28N 51°50' E 003°23'13 3.3
2020-Sep-15 05:30N 51°53' E 003°44'8 3.2
2020-Sep-15 02:59N 51°58' E 003°55'1 1.0
2020-Sep-15 02:00N 51°59' E 003°55'10 1.9
2020-Sep-14 21:01N 52°07' E 004°02'5 4.8
2020-Sep-14 20:00N 52°12' E 004°03'22 4.1
2020-Sep-14 14:30N 52°27' E 004°31'3 1.7
2020-Sep-14 12:30N 52°28' E 004°36'0 0.0
2020-Sep-14 10:00N 52°28' E 004°36'9 2.6
2020-Sep-14 06:31N 52°26' E 004°50'1 0.7
2020-Sep-14 05:29N 52°26' E 004°50'0 0.0
2020-Sep-14 04:59N 52°26' E 004°50'0 0.0
2020-Sep-14 03:59N 52°26' E 004°50'0 0.0
2020-Sep-14 03:29N 52°26' E 004°50'0 0.0
2020-Sep-14 02:59N 52°26' E 004°50'0 0.0
2020-Sep-14 02:29N 52°26' E 004°50'0 0.0
2020-Sep-14 00:59N 52°26' E 004°50'0 0.0
2020-Sep-13 22:29N 52°26' E 004°50'0 0.0
2020-Sep-13 21:59N 52°26' E 004°50'0 0.0
2020-Sep-13 21:29N 52°26' E 004°50'0 0.0
2020-Sep-13 15:59N 52°26' E 004°50'0 0.0
2020-Sep-13 15:29N 52°26' E 004°50'0 0.0
2020-Sep-13 14:29N 52°26' E 004°50'0 0.0
2020-Sep-13 13:29N 52°26' E 004°50'0 0.0
2020-Sep-13 08:59N 52°26' E 004°50'0 0.0
2020-Sep-13 08:29N 52°26' E 004°50'0 0.0
2020-Sep-13 04:59N 52°26' E 004°50'0 0.0
2020-Sep-13 04:26N 52°26' E 004°50'0 0.0
2020-Sep-13 03:59N 52°26' E 004°50'0 0.0
2020-Sep-13 01:59N 52°26' E 004°50'0 0.0
2020-Sep-12 23:29N 52°26' E 004°50'0 0.0
2020-Sep-12 20:59N 52°26' E 004°50'0 0.0
2020-Sep-12 20:29N 52°26' E 004°50'0 0.0
2020-Sep-12 19:29N 52°26' E 004°50'0 0.0
2020-Sep-12 17:29N 52°26' E 004°50'  
Track history (hours):
 
Tides and Currents Weather Stations Pressure Air Temp Water Temp Dewpoint Dewpoint Depression Visibility Wind Speed Wind Dir Waves Ship Positions

Shtandart

Re-creation of early 1700's Russian naval frigate.

Last reported at 2020-Sep-22 16:31 UTC. Time now 2020-Sep-26 09:14 UTC.
Position N 48°07' W 004°52'.

Length 26 m; draft 3 m.

Type: Sailing vessel. MMSI: 273452840.

Date/timePositionNaut miles runAvg speedWind from/ knotsBaromVisibWave heightAir tempDewpointWater temp
2020-Sep-22 16:31N 48°07' W 004°52'2 4.7
2020-Sep-22 16:01N 48°09' W 004°54'2 4.2
2020-Sep-22 15:30N 48°11' W 004°55'15 4.4
2020-Sep-22 12:00N 48°26' W 004°50'75 5.7
2020-Sep-21 22:51N 48°56' W 003°06'5 4.0
2020-Sep-21 21:30N 48°51' W 003°03'3 0.6
2020-Sep-21 17:21N 48°53' W 002°60'5 3.2
2020-Sep-21 15:51N 48°55' W 002°53'12 6.1
2020-Sep-21 13:54N 48°52' W 002°35'26 6.6
2020-Sep-21 10:01N 48°38' W 002°02'  
2020-Sep-18 04:59N 48°39' W 002°02'12 6.1
2020-Sep-18 02:58N 48°45' W 002°18'6 4.2
2020-Sep-18 01:25N 48°51' W 002°23'2 3.2
2020-Sep-18 00:46N 48°53' W 002°23'21 4.0
2020-Sep-17 19:30N 49°14' W 002°16'10 3.9
2020-Sep-17 17:01N 49°23' W 002°15'9 5.9
2020-Sep-17 15:31N 49°32' W 002°12'9 9.2
2020-Sep-17 14:30N 49°40' W 002°06'3012.0
2020-Sep-17 12:01N 49°59' W 001°30'28 6.9
2020-Sep-17 07:52N 50°22' W 001°03'2 6.2
2020-Sep-17 07:28N 50°24' W 001°02'3 6.1
2020-Sep-17 06:59N 50°27' W 001°00'2 4.7
2020-Sep-17 06:30N 50°28' W 000°57'22 7.0
2020-Sep-17 03:21N 50°35' W 000°25'4 9.2
2020-Sep-17 02:53N 50°36' W 000°18'74 8.1
2020-Sep-16 17:46N 51°08' E 001°28'7 9.5
2020-Sep-16 17:00N 51°13' E 001°36'4 7.3
2020-Sep-16 16:30N 51°16' E 001°40'19 4.2
2020-Sep-16 12:00N 51°31' E 001°57'29 5.8
2020-Sep-16 07:00N 51°50' E 002°33'13 6.3
2020-Sep-16 05:01N 51°56' E 002°51'4 6.5
2020-Sep-16 04:23N 51°58' E 002°57'2 5.2
2020-Sep-16 04:00N 51°58' E 003°00'4 3.6
2020-Sep-16 03:01N 51°58' E 003°06'6 2.0
2020-Sep-16 00:00N 51°54' E 003°14'0 0.6
2020-Sep-15 23:22N 51°54' E 003°14'1 0.8
2020-Sep-15 22:21N 51°54' E 003°13'2 1.1
2020-Sep-15 20:29N 51°56' E 003°13'5 0.7
2020-Sep-15 13:26N 51°52' E 003°15'5 1.4
2020-Sep-15 09:28N 51°50' E 003°23'13 3.3
2020-Sep-15 05:30N 51°53' E 003°44'8 3.2
2020-Sep-15 02:59N 51°58' E 003°55'1 1.0
2020-Sep-15 02:00N 51°59' E 003°55'10 1.9
2020-Sep-14 21:01N 52°07' E 004°02'5 4.8
2020-Sep-14 20:00N 52°12' E 004°03'22 4.1
2020-Sep-14 14:30N 52°27' E 004°31'3 1.7
2020-Sep-14 12:30N 52°28' E 004°36'0 0.0
2020-Sep-14 10:00N 52°28' E 004°36'9 2.6
2020-Sep-14 06:31N 52°26' E 004°50'1 0.7
2020-Sep-14 05:29N 52°26' E 004°50'0 0.0
2020-Sep-14 04:59N 52°26' E 004°50'0 0.0
2020-Sep-14 03:59N 52°26' E 004°50'0 0.0
2020-Sep-14 03:29N 52°26' E 004°50'0 0.0
2020-Sep-14 02:59N 52°26' E 004°50'0 0.0
2020-Sep-14 02:29N 52°26' E 004°50'0 0.0
2020-Sep-14 00:59N 52°26' E 004°50'0 0.0
2020-Sep-13 22:29N 52°26' E 004°50'0 0.0
2020-Sep-13 21:59N 52°26' E 004°50'0 0.0
2020-Sep-13 21:29N 52°26' E 004°50'0 0.0
2020-Sep-13 15:59N 52°26' E 004°50'0 0.0
2020-Sep-13 15:29N 52°26' E 004°50'0 0.0
2020-Sep-13 14:29N 52°26' E 004°50'0 0.0
2020-Sep-13 13:29N 52°26' E 004°50'0 0.0
2020-Sep-13 08:59N 52°26' E 004°50'0 0.0
2020-Sep-13 08:29N 52°26' E 004°50'0 0.0
2020-Sep-13 04:59N 52°26' E 004°50'0 0.0
2020-Sep-13 04:26N 52°26' E 004°50'0 0.0
2020-Sep-13 03:59N 52°26' E 004°50'0 0.0
2020-Sep-13 01:59N 52°26' E 004°50'0 0.0
2020-Sep-12 23:29N 52°26' E 004°50'0 0.0
2020-Sep-12 20:59N 52°26' E 004°50'0 0.0
2020-Sep-12 20:29N 52°26' E 004°50'0 0.0
2020-Sep-12 19:29N 52°26' E 004°50'0 0.0
2020-Sep-12 17:29N 52°26' E 004°50'  

Dump ship's entire track history